Time;durP1;ratioP1;P1;durP2;ratioP2;P2;SDS_P1;SDS_P2;PMS_P1;PMS_P2;Temp;Humidity;BMP_temperature;BMP_pressure;BME280_temperature;BME280_humidity;BME280_pressure;Samples;Min_cycle;Max_cycle;Signal;HPM_P1;HPM_P2
2022/04/27 00:00:04;;;;;;;15.02;6.10;;;;;;;14.72;73.62;100447.94;5056424;28;20052;-81
2022/04/27 00:02:33;;;;;;;16.08;6.28;;;;;;;14.87;74.36;100486.47;5077628;28;20083;-82
2022/04/27 00:05:00;;;;;;;13.13;5.85;;;;;;;14.93;72.28;100481.06;5061792;28;20126;-81
2022/04/27 00:07:26;;;;;;;13.95;7.15;;;;;;;15.24;71.22;100480.56;5075004;28;20083;-80
2022/04/27 00:09:52;;;;;;;13.85;7.13;;;;;;;14.93;70.73;100461.69;5078127;28;20052;-84
2022/04/27 00:12:17;;;;;;;10.18;6.25;;;;;;;14.88;72.15;100459.13;5063404;28;20128;-83
2022/04/27 00:14:44;;;;;;;9.60;5.97;;;;;;;14.63;73.80;100484.19;5073512;28;20113;-84
2022/04/27 00:17:10;;;;;;;11.75;7.05;;;;;;;14.57;73.03;100453.50;5065288;28;20066;-82
2022/04/27 00:19:36;;;;;;;10.13;5.88;;;;;;;14.62;74.57;100470.13;5053122;28;20050;-83
2022/04/27 00:22:03;;;;;;;18.45;7.78;;;;;;;14.52;73.00;100452.66;5066530;28;20048;-80
2022/04/27 00:24:29;;;;;;;10.80;7.22;;;;;;;14.89;72.30;100482.03;5070361;28;20048;-83
2022/04/27 00:26:55;;;;;;;7.13;5.90;;;;;;;14.83;71.90;100471.56;5048027;28;20040;-81
2022/04/27 00:29:21;;;;;;;12.13;6.40;;;;;;;14.54;72.50;100459.69;5083203;28;20060;-85
2022/04/27 00:31:49;;;;;;;10.45;6.55;;;;;;;14.53;70.37;100473.75;5053351;28;20040;-81
2022/04/27 00:34:16;;;;;;;12.88;6.45;;;;;;;14.77;69.03;100464.63;5088236;28;20058;-82
2022/04/27 00:36:41;;;;;;;17.60;7.30;;;;;;;14.95;72.13;100489.84;5066335;28;20125;-81
2022/04/27 00:39:08;;;;;;;12.60;6.55;;;;;;;14.71;71.46;100498.16;5079571;28;20058;-84
2022/04/27 00:41:36;;;;;;;10.82;6.20;;;;;;;14.72;72.09;100465.56;5080046;28;20059;-85
2022/04/27 00:44:02;;;;;;;10.40;6.10;;;;;;;14.65;72.21;100464.78;5079490;28;20498;-85
2022/04/27 00:46:29;;;;;;;17.15;6.43;;;;;;;14.91;70.17;100508.41;5068069;28;20024;-84
2022/04/27 00:48:54;;;;;;;11.25;6.68;;;;;;;14.57;72.45;100496.59;5067674;28;20044;-83
2022/04/27 00:51:23;;;;;;;9.18;6.50;;;;;;;14.31;72.57;100472.34;5081406;28;20105;-84
2022/04/27 00:53:49;;;;;;;12.82;7.25;;;;;;;14.49;72.47;100476.44;5052244;28;20157;-83
2022/04/27 00:56:18;;;;;;;14.32;6.35;;;;;;;14.70;73.38;100489.38;5078218;28;20043;-83
2022/04/27 00:58:47;;;;;;;14.65;7.70;;;;;;;14.57;72.42;100472.84;5062410;28;20039;-83
2022/04/27 01:01:14;;;;;;;17.30;7.50;;;;;;;14.49;73.29;100469.44;5087171;28;20054;-83
2022/04/27 01:03:40;;;;;;;13.30;7.38;;;;;;;14.46;75.09;100464.16;5088076;28;20051;-83
2022/04/27 01:06:06;;;;;;;8.82;5.82;;;;;;;14.25;75.30;100467.13;5078268;28;20059;-83
2022/04/27 01:08:32;;;;;;;10.13;6.20;;;;;;;14.10;76.07;100466.44;5082839;28;20040;-84
2022/04/27 01:11:00;;;;;;;10.52;6.40;;;;;;;14.33;75.37;100483.75;5064563;28;20052;-84
2022/04/27 01:13:29;;;;;;;11.73;6.18;;;;;;;14.25;76.44;100469.78;5070003;28;20060;-80
2022/04/27 01:15:55;;;;;;;20.52;8.45;;;;;;;14.32;75.80;100469.66;5075493;28;20051;-85
2022/04/27 01:18:21;;;;;;;16.52;6.68;;;;;;;14.29;77.52;100516.34;5063242;28;20052;-83
2022/04/27 01:20:50;;;;;;;11.13;6.70;;;;;;;13.89;78.57;100466.75;5040665;28;20586;-85
2022/04/27 01:23:19;;;;;;;18.80;7.75;;;;;;;13.07;79.61;100536.09;5065048;28;20055;-85
2022/04/27 01:25:50;;;;;;;25.45;8.10;;;;;;;12.36;79.72;100498.88;5066817;28;20052;-84
2022/04/27 01:28:18;;;;;;;17.45;6.75;;;;;;;12.49;79.97;100536.50;5074360;28;20060;-87
2022/04/27 01:30:47;;;;;;;13.20;7.38;;;;;;;12.68;79.13;100542.53;5054167;28;20040;-81
2022/04/27 01:33:13;;;;;;;12.80;8.10;;;;;;;12.66;78.26;100539.03;5063465;28;20043;-83
2022/04/27 01:35:40;;;;;;;15.88;9.20;;;;;;;12.92;77.65;100543.25;5071437;28;20090;-84
2022/04/27 01:38:07;;;;;;;12.52;8.93;;;;;;;12.80;76.04;100492.41;5063860;28;20050;-84
2022/04/27 01:40:35;;;;;;;12.10;8.38;;;;;;;12.71;75.96;100508.28;5081991;28;20035;-84
2022/04/27 01:43:01;;;;;;;21.88;8.52;;;;;;;13.00;74.25;100509.81;5056143;28;20047;-83
2022/04/27 01:45:27;;;;;;;12.40;7.95;;;;;;;13.35;72.12;100517.44;5067826;28;20050;-85
2022/04/27 01:47:54;;;;;;;13.63;7.00;;;;;;;13.56;70.10;100505.81;5078730;28;20481;-85
2022/04/27 01:50:21;;;;;;;10.95;6.72;;;;;;;13.76;68.60;100508.19;5073442;28;20052;-83
2022/04/27 01:55:31;;;;;;;12.27;6.63;;;;;;;14.26;67.47;100548.06;5078160;28;20043;-85
2022/04/27 01:57:58;;;;;;;10.15;7.38;;;;;;;14.38;66.51;100553.19;5057915;28;20048;-80
2022/04/27 02:00:25;;;;;;;11.35;6.13;;;;;;;14.19;66.44;100528.81;5076199;28;20040;-83
2022/04/27 02:02:52;;;;;;;14.93;5.55;;;;;;;14.20;65.92;100521.75;5083864;28;20056;-80
2022/04/27 02:05:18;;;;;;;9.60;6.40;;;;;;;14.13;65.42;100526.22;5070597;28;20047;-84
2022/04/27 02:07:43;;;;;;;9.30;5.85;;;;;;;14.05;65.81;100525.47;5050812;28;20071;-85
2022/04/27 02:10:10;;;;;;;15.10;6.25;;;;;;;14.22;65.61;100534.03;5060750;28;20135;-84
2022/04/27 02:12:37;;;;;;;13.60;5.93;;;;;;;14.38;65.05;100569.03;5047419;28;20073;-84
2022/04/27 02:15:03;;;;;;;8.30;5.25;;;;;;;14.06;64.34;100521.94;5058889;28;20060;-83
2022/04/27 02:17:39;;;;;;;7.40;4.32;;;;;;;14.06;65.01;100504.31;5055449;28;20060;-83
2022/04/27 02:20:06;;;;;;;6.30;4.95;;;;;;;14.56;64.03;100552.06;5042760;28;20052;-83
2022/04/27 02:22:35;;;;;;;12.32;5.53;;;;;;;14.49;64.17;100547.75;5054378;28;20588;-86
2022/04/27 02:25:11;;;;;;;9.45;4.85;;;;;;;13.96;65.75;100526.44;5042827;28;20075;-83
2022/04/27 02:27:39;;;;;;;8.20;4.95;;;;;;;14.06;65.03;100543.03;5057603;28;20051;-84
2022/04/27 02:30:05;;;;;;;7.20;4.40;;;;;;;14.22;64.81;100557.78;5060534;28;20067;-82
2022/04/27 02:32:34;;;;;;;5.47;3.10;;;;;;;14.06;64.74;100554.44;5063363;28;20123;-84
2022/04/27 02:35:00;;;;;;;12.18;4.10;;;;;;;13.82;64.75;100525.75;5043127;28;20045;-82
2022/04/27 02:37:32;;;;;;;8.27;4.10;;;;;;;13.82;64.33;100526.59;5058722;28;20583;-80
2022/04/27 02:39:59;;;;;;;9.75;4.65;;;;;;;14.01;64.92;100565.97;5057102;28;20048;-82
2022/04/27 02:42:26;;;;;;;9.38;4.18;;;;;;;14.06;64.69;100543.03;5061826;28;20056;-84
2022/04/27 02:44:55;;;;;;;10.75;4.18;;;;;;;13.77;64.95;100535.47;5055402;28;20130;-84
2022/04/27 02:47:22;;;;;;;7.15;4.07;;;;;;;14.03;65.14;100565.06;5064060;28;20044;-80
2022/04/27 02:52:35;;;;;;;7.57;4.00;;;;;;;14.04;64.93;100579.97;5063821;28;20567;-80
2022/04/27 02:55:01;;;;;;;8.18;5.40;;;;;;;13.89;64.45;100537.97;5060594;28;20060;-80
2022/04/27 02:57:27;;;;;;;7.00;4.38;;;;;;;14.03;63.95;100564.19;5065231;28;20047;-85
2022/04/27 02:59:54;;;;;;;7.90;4.38;;;;;;;13.92;65.00;100537.91;5054368;28;20050;-82
2022/04/27 03:02:21;;;;;;;8.70;4.60;;;;;;;13.83;64.57;100569.69;5061198;28;20136;-85
2022/04/27 03:04:47;;;;;;;9.18;5.40;;;;;;;13.73;64.99;100553.94;5048537;28;20028;-87
2022/04/27 03:07:13;;;;;;;8.18;4.65;;;;;;;13.66;64.99;100547.00;5067008;28;20074;-82
2022/04/27 03:09:38;;;;;;;9.57;4.38;;;;;;;13.75;65.63;100543.41;5073983;28;20066;-83
2022/04/27 03:12:05;;;;;;;10.98;5.32;;;;;;;13.65;65.73;100542.63;5047298;28;20312;-84
2022/04/27 03:14:34;;;;;;;8.73;5.22;;;;;;;13.65;65.24;100547.91;5061381;28;20060;-84
2022/04/27 03:17:01;;;;;;;10.38;4.38;;;;;;;13.60;65.76;100549.72;5083395;28;20032;-82
2022/04/27 03:19:27;;;;;;;7.78;4.32;;;;;;;13.76;65.52;100599.66;5065273;28;20040;-80
2022/04/27 03:21:53;;;;;;;8.27;4.65;;;;;;;13.51;65.92;100550.66;5079200;28;20135;-85
2022/04/27 03:24:18;;;;;;;7.82;3.63;;;;;;;13.68;66.04;100561.03;5086644;28;20567;-83
2022/04/27 03:26:47;;;;;;;6.10;3.97;;;;;;;13.44;65.37;100571.84;5080399;28;20541;-85
2022/04/27 03:29:15;;;;;;;7.63;4.40;;;;;;;13.30;65.85;100566.69;5065546;28;20469;-87
2022/04/27 03:31:42;;;;;;;10.57;4.38;;;;;;;13.51;65.62;100568.25;5069415;28;20030;-85
2022/04/27 03:34:10;;;;;;;10.05;3.88;;;;;;;13.47;64.90;100579.72;5068035;28;20089;-81
2022/04/27 03:36:35;;;;;;;6.70;4.15;;;;;;;13.49;64.97;100573.53;5071561;28;20048;-84
2022/04/27 03:39:01;;;;;;;9.27;5.07;;;;;;;13.21;66.29;100578.16;5078439;28;20083;-82
2022/04/27 03:41:28;;;;;;;9.65;3.72;;;;;;;13.51;66.38;100598.13;5084083;28;20044;-84
2022/04/27 03:43:55;;;;;;;8.95;5.40;;;;;;;13.62;65.96;100603.28;5087564;28;20028;-83
2022/04/27 03:46:22;;;;;;;8.65;5.88;;;;;;;13.48;65.81;100605.16;5085229;28;20487;-83
2022/04/27 03:48:48;;;;;;;10.07;5.03;;;;;;;13.33;66.34;100607.97;5069023;28;20079;-85
2022/04/27 03:51:14;;;;;;;7.70;5.05;;;;;;;13.37;66.63;100614.94;5087584;28;20056;-84
2022/04/27 03:53:39;;;;;;;12.82;5.72;;;;;;;13.25;65.90;100590.41;5086478;27;20059;-85
2022/04/27 03:56:06;;;;;;;11.88;5.07;;;;;;;12.75;67.26;100573.19;5074719;28;20061;-81
2022/04/27 03:58:32;;;;;;;12.95;3.88;;;;;;;12.97;67.18;100599.38;5090217;28;20039;-84
2022/04/27 04:00:58;;;;;;;9.52;5.75;;;;;;;12.99;66.55;100590.59;5069890;28;20230;-83
2022/04/27 04:03:24;;;;;;;8.90;4.60;;;;;;;12.71;67.59;100599.56;5082744;28;20060;-86
2022/04/27 04:05:49;;;;;;;8.18;5.07;;;;;;;13.14;67.37;100633.53;5070418;28;20122;-83
2022/04/27 04:08:15;;;;;;;6.57;4.72;;;;;;;12.44;68.25;100580.41;5065733;28;20070;-84
2022/04/27 04:10:41;;;;;;;6.50;4.60;;;;;;;12.51;68.71;100602.31;5085138;28;20031;-84
2022/04/27 04:13:08;;;;;;;6.35;3.97;;;;;;;12.65;68.63;100613.63;5084334;28;20044;-86
2022/04/27 04:15:37;;;;;;;5.72;4.20;;;;;;;12.53;68.38;100604.06;5072366;28;20052;-85
2022/04/27 04:18:05;;;;;;;7.00;4.05;;;;;;;12.93;68.00;100651.22;5057005;28;20051;-84
2022/04/27 04:20:30;;;;;;;10.70;5.13;;;;;;;12.99;67.80;100639.75;5085342;28;20063;-83
2022/04/27 04:23:01;;;;;;;7.43;3.95;;;;;;;13.27;67.10;100653.63;5055141;28;20035;-83
2022/04/27 04:28:29;;;;;;;9.07;5.47;;;;;;;13.12;67.17;100617.72;5080465;28;20465;-85
2022/04/27 04:31:02;;;;;;;8.23;4.78;;;;;;;13.30;66.13;100628.19;5083958;28;20044;-86
2022/04/27 04:33:28;;;;;;;8.27;4.47;;;;;;;13.37;66.28;100622.84;5082951;28;20058;-87
2022/04/27 04:35:56;;;;;;;13.27;4.43;;;;;;;13.52;66.41;100643.81;5071911;28;20503;-82
2022/04/27 04:38:23;;;;;;;8.07;5.57;;;;;;;13.19;66.08;100619.44;5080006;28;20047;-79
2022/04/27 04:40:49;;;;;;;7.45;4.55;;;;;;;13.48;65.74;100616.59;5063931;28;20050;-83
2022/04/27 04:43:15;;;;;;;7.72;5.28;;;;;;;13.63;66.50;100670.09;5085943;28;20032;-83
2022/04/27 04:45:41;;;;;;;6.68;3.55;;;;;;;13.40;66.16;100649.19;5080085;28;20052;-82
2022/04/27 04:48:08;;;;;;;8.20;4.88;;;;;;;13.30;67.26;100656.28;5081550;28;20043;-84
2022/04/27 04:50:35;;;;;;;17.40;5.90;;;;;;;13.37;66.79;100647.47;5074119;28;20043;-83
2022/04/27 04:53:05;;;;;;;6.97;4.75;;;;;;;13.31;66.95;100650.13;5080450;28;20024;-83
2022/04/27 04:55:31;;;;;;;10.07;3.60;;;;;;;13.65;66.91;100665.66;5048595;28;20089;-82
2022/04/27 04:57:59;;;;;;;7.18;4.45;;;;;;;13.44;66.56;100656.19;5067948;28;20047;-84
2022/04/27 05:00:25;;;;;;;5.55;3.45;;;;;;;13.59;66.80;100652.56;5050924;28;21789;-87
2022/04/27 05:02:50;;;;;;;6.93;3.42;;;;;;;13.52;66.62;100647.31;5066804;28;20504;-86
2022/04/27 05:05:16;;;;;;;12.52;4.72;;;;;;;13.60;66.45;100644.63;5080553;28;20133;-84
2022/04/27 05:07:42;;;;;;;13.20;3.40;;;;;;;13.84;65.92;100650.56;5066115;28;20385;-83
2022/04/27 05:10:08;;;;;;;6.50;4.05;;;;;;;13.92;65.44;100648.72;5044418;28;20149;-82
2022/04/27 05:12:37;;;;;;;10.23;5.25;;;;;;;14.28;65.10;100687.06;5075529;28;20131;-81
2022/04/27 05:15:05;;;;;;;7.82;4.70;;;;;;;14.33;64.75;100695.78;5078580;28;20071;-85
2022/04/27 05:17:30;;;;;;;8.45;4.63;;;;;;;14.52;64.50;100699.09;5061135;28;20044;-80
2022/04/27 05:19:56;;;;;;;7.32;4.72;;;;;;;14.52;63.57;100658.63;5080035;28;20039;-85
2022/04/27 05:22:22;;;;;;;8.35;4.20;;;;;;;15.05;63.19;100701.09;5079575;28;20051;-82
2022/04/27 05:24:48;;;;;;;7.65;4.65;;;;;;;14.90;63.04;100665.19;5077602;28;20505;-81
2022/04/27 05:27:14;;;;;;;7.38;4.60;;;;;;;14.93;62.98;100665.16;5056665;28;20773;-83
2022/04/27 05:32:27;;;;;;;9.68;3.80;;;;;;;16.03;60.74;100700.44;5075604;28;20063;-81
2022/04/27 05:34:55;;;;;;;14.35;5.43;;;;;;;15.50;60.96;100665.19;5059163;28;22283;-85
2022/04/27 05:37:21;;;;;;;10.85;5.43;;;;;;;15.75;61.36;100717.72;5082132;28;20040;-85
2022/04/27 05:39:46;;;;;;;10.40;4.35;;;;;;;15.82;60.46;100691.13;5059526;28;20050;-81
2022/04/27 05:42:12;;;;;;;16.60;5.70;;;;;;;16.12;59.79;100709.16;5063067;28;20044;-85
2022/04/27 05:44:39;;;;;;;13.23;4.70;;;;;;;15.90;60.38;100687.50;5061439;28;20040;-80
2022/04/27 05:47:05;;;;;;;14.20;5.97;;;;;;;16.15;59.21;100694.06;5058359;28;20024;-84
2022/04/27 05:49:30;;;;;;;17.95;5.50;;;;;;;15.83;61.50;100694.66;5081757;28;20035;-84
2022/04/27 05:51:57;;;;;;;8.98;5.45;;;;;;;16.01;59.91;100727.84;5064335;28;20100;-84
2022/04/27 05:54:23;;;;;;;7.03;4.78;;;;;;;15.75;60.43;100699.19;5066601;28;20044;-83
2022/04/27 05:56:49;;;;;;;7.90;4.90;;;;;;;15.65;60.85;100711.66;5063665;28;20044;-82
2022/04/27 05:59:17;;;;;;;19.48;5.32;;;;;;;16.02;59.52;100698.72;5077542;28;20051;-81
2022/04/27 06:01:42;;;;;;;11.70;5.18;;;;;;;16.25;60.17;100700.94;5061494;28;20040;-83
2022/04/27 06:04:08;;;;;;;10.48;5.97;;;;;;;16.56;59.32;100707.44;5058803;28;20253;-85
2022/04/27 06:06:34;;;;;;;21.08;5.05;;;;;;;16.35;59.90;100693.69;5060195;28;20040;-84
2022/04/27 06:09:01;;;;;;;9.95;4.82;;;;;;;16.27;59.06;100721.22;5080118;28;20036;-84
2022/04/27 06:11:27;;;;;;;11.70;5.72;;;;;;;16.70;57.68;100728.34;5063227;28;20047;-79
2022/04/27 06:13:52;;;;;;;12.05;5.55;;;;;;;16.93;58.05;100765.91;5064644;28;20032;-82
2022/04/27 06:16:22;;;;;;;8.23;5.53;;;;;;;16.46;58.68;100728.81;5081632;28;20032;-85
2022/04/27 06:18:47;;;;;;;13.07;4.20;;;;;;;16.30;59.10;100734.44;5079689;28;20040;-84
2022/04/27 06:21:13;;;;;;;9.88;4.40;;;;;;;16.40;59.73;100741.28;5058730;28;20055;-80
2022/04/27 06:23:39;;;;;;;9.57;3.55;;;;;;;16.43;59.70;100755.31;5078037;28;20090;-81
2022/04/27 06:26:06;;;;;;;9.00;3.95;;;;;;;15.79;61.36;100738.81;5075189;28;20126;-85
2022/04/27 06:28:38;;;;;;;22.98;5.75;;;;;;;16.32;60.37;100780.25;5083609;28;20031;-84
2022/04/27 06:31:07;;;;;;;24.70;6.07;;;;;;;15.27;62.45;100741.34;5066987;28;20062;-85
2022/04/27 06:33:32;;;;;;;5.57;3.92;;;;;;;15.33;62.99;100768.56;5079382;28;20052;-83
2022/04/27 06:35:58;;;;;;;7.13;3.47;;;;;;;15.43;63.11;100766.69;5079987;28;20626;-84
2022/04/27 06:38:24;;;;;;;10.75;4.95;;;;;;;15.28;63.69;100743.09;5073538;28;20039;-85
2022/04/27 06:40:49;;;;;;;9.57;4.80;;;;;;;15.79;62.75;100789.09;5070749;28;20028;-84
2022/04/27 06:43:17;;;;;;;12.27;5.63;;;;;;;16.18;61.21;100773.47;5052497;28;20028;-84
2022/04/27 06:45:44;;;;;;;10.88;4.75;;;;;;;15.67;61.89;100733.69;5080966;28;20048;-81
2022/04/27 06:48:11;;;;;;;10.80;5.80;;;;;;;15.63;62.83;100785.75;5078589;28;20056;-86
2022/04/27 06:50:37;;;;;;;7.07;3.97;;;;;;;15.52;62.93;100744.50;5077210;28;20142;-83
2022/04/27 06:53:05;;;;;;;7.53;4.35;;;;;;;16.12;62.53;100791.22;5079500;28;20036;-82
2022/04/27 06:55:33;;;;;;;6.75;4.10;;;;;;;16.07;61.97;100780.69;5062962;28;20032;-83
2022/04/27 06:57:59;;;;;;;11.75;4.50;;;;;;;16.22;61.27;100768.97;5078706;28;20056;-82
2022/04/27 07:00:25;;;;;;;8.05;4.30;;;;;;;16.44;62.09;100777.41;5080471;28;20059;-84
2022/04/27 07:02:53;;;;;;;11.38;4.28;;;;;;;16.53;61.54;100741.91;5069337;28;20064;-84
2022/04/27 07:05:20;;;;;;;13.98;4.35;;;;;;;16.81;61.03;100779.38;5079025;28;20086;-84
2022/04/27 07:07:54;;;;;;;7.53;3.97;;;;;;;16.36;60.76;100739.59;5080510;28;20056;-85
2022/04/27 07:10:21;;;;;;;13.38;6.15;;;;;;;16.44;60.68;100741.19;5078181;28;20681;-83
2022/04/27 07:12:47;;;;;;;6.47;3.85;;;;;;;16.52;60.73;100746.34;5039218;28;20170;-82
2022/04/27 07:15:14;;;;;;;12.27;4.97;;;;;;;17.08;60.05;100786.78;5063366;28;20044;-84
2022/04/27 07:17:39;;;;;;;6.50;4.20;;;;;;;17.01;59.45;100758.66;5083759;28;20044;-81
2022/04/27 07:20:06;;;;;;;11.32;4.65;;;;;;;16.99;59.12;100760.44;5083000;28;20032;-80
2022/04/27 07:22:33;;;;;;;7.53;4.68;;;;;;;17.37;59.48;100795.91;5071383;28;20044;-84
2022/04/27 07:24:58;;;;;;;5.72;4.22;;;;;;;17.26;58.73;100782.00;5062420;28;20104;-82
2022/04/27 07:27:25;;;;;;;7.03;4.15;;;;;;;17.33;59.05;100762.38;5082119;28;20043;-84
2022/04/27 07:29:51;;;;;;;9.32;4.13;;;;;;;17.55;58.70;100776.03;5066985;28;20583;-84
2022/04/27 07:32:19;;;;;;;6.50;3.78;;;;;;;16.81;59.54;100752.88;5081599;28;20121;-85
2022/04/27 07:34:44;;;;;;;16.98;4.47;;;;;;;16.12;60.94;100717.09;5061169;28;20108;-83
2022/04/27 07:37:12;;;;;;;5.00;3.53;;;;;;;16.65;60.62;100792.91;5077259;28;20498;-85
2022/04/27 07:39:40;;;;;;;11.13;4.18;;;;;;;16.93;61.03;100796.81;5079229;28;20051;-82
2022/04/27 07:42:07;;;;;;;17.60;4.20;;;;;;;16.82;60.62;100782.00;5083553;28;20048;-83
2022/04/27 07:44:33;;;;;;;18.42;5.35;;;;;;;17.23;61.18;100787.34;5050739;28;20090;-82
2022/04/27 07:46:59;;;;;;;8.90;5.07;;;;;;;17.39;59.69;100756.06;5062681;28;20067;-83
2022/04/27 07:49:24;;;;;;;9.25;4.07;;;;;;;17.30;60.56;100781.91;5082008;28;20040;-81
2022/04/27 07:51:50;;;;;;;13.10;4.28;;;;;;;17.51;59.71;100764.63;5068752;28;20050;-81
2022/04/27 07:54:21;;;;;;;6.32;3.95;;;;;;;17.29;59.16;100758.91;5083170;28;20637;-82
2022/04/27 07:56:47;;;;;;;5.85;4.20;;;;;;;17.69;57.61;100758.00;5081207;28;20495;-82
2022/04/27 07:59:14;;;;;;;12.90;5.57;;;;;;;17.86;59.07;100756.75;5056465;28;20177;-86
2022/04/27 08:01:39;;;;;;;7.88;4.13;;;;;;;18.34;58.04;100790.97;5068022;28;20044;-86
2022/04/27 08:04:06;;;;;;;18.77;6.07;;;;;;;18.51;57.56;100777.22;5073503;28;20043;-82
2022/04/27 08:06:32;;;;;;;12.57;3.88;;;;;;;18.51;55.53;100795.81;5063365;28;20045;-81
2022/04/27 08:08:59;;;;;;;7.60;4.90;;;;;;;17.93;57.54;100758.34;5058209;28;20069;-84
2022/04/27 08:11:24;;;;;;;16.88;4.43;;;;;;;17.63;58.52;100794.41;5057496;28;20056;-83
2022/04/27 08:13:50;;;;;;;9.80;3.90;;;;;;;17.38;59.21;100757.84;5048405;28;20040;-82
2022/04/27 08:16:17;;;;;;;15.95;6.07;;;;;;;17.68;57.88;100780.16;5063330;28;20918;-83
2022/04/27 08:18:43;;;;;;;8.48;3.45;;;;;;;17.79;59.02;100765.75;5041061;28;20503;-84
2022/04/27 08:21:16;;;;;;;9.07;3.92;;;;;;;17.81;59.00;100786.06;5049986;28;20040;-80
2022/04/27 08:23:46;;;;;;;;;;;;;;;17.73;58.29;100751.72;5070742;28;20174;-84
2022/04/27 08:26:13;;;;;;;6.95;3.78;;;;;;;17.96;57.59;100758.28;5072890;28;19932;-81
2022/04/27 08:28:43;;;;;;;5.25;3.15;;;;;;;17.62;58.82;100782.94;5073535;28;20074;-85
2022/04/27 08:31:11;;;;;;;10.35;3.17;;;;;;;17.66;59.41;100746.59;5056214;28;20052;-83
2022/04/27 08:33:40;;;;;;;8.07;3.65;;;;;;;18.28;58.29;100791.13;5074278;28;20108;-82
2022/04/27 08:36:07;;;;;;;8.50;3.92;;;;;;;18.43;57.88;100776.56;5067486;28;20105;-85
2022/04/27 08:38:35;;;;;;;8.40;3.05;;;;;;;18.30;57.88;100768.03;5066823;28;20230;-80
2022/04/27 08:41:01;;;;;;;6.00;3.53;;;;;;;18.64;57.11;100744.09;5058977;28;20032;-83
2022/04/27 08:43:27;;;;;;;6.60;4.20;;;;;;;19.00;57.42;100777.69;5060204;28;20059;-84
2022/04/27 08:45:54;;;;;;;4.13;3.08;;;;;;;18.56;57.60;100777.97;5055722;28;20423;-84
2022/04/27 08:48:21;;;;;;;4.93;3.38;;;;;;;17.69;58.80;100742.06;5058192;28;20056;-84
2022/04/27 08:50:51;;;;;;;9.02;4.22;;;;;;;18.27;57.96;100733.59;5056156;28;20105;-80
2022/04/27 08:53:23;;;;;;;6.68;3.22;;;;;;;18.36;58.32;100751.94;5067101;28;20044;-85
2022/04/27 08:55:52;;;;;;;5.15;3.17;;;;;;;18.51;57.44;100743.53;5059609;28;20100;-79
2022/04/27 08:58:17;;;;;;;5.45;3.85;;;;;;;18.63;57.04;100731.69;5071305;28;20036;-84
2022/04/27 09:00:45;;;;;;;6.40;3.47;;;;;;;18.72;57.15;100728.78;5060975;28;20048;-80
2022/04/27 09:03:25;;;;;;;5.28;3.60;;;;;;;19.00;56.70;100743.97;5059497;28;20142;-78
2022/04/27 09:05:55;;;;;;;4.55;2.97;;;;;;;19.31;56.30;100756.34;5071248;28;20044;-79
2022/04/27 09:08:24;;;;;;;6.50;3.35;;;;;;;19.50;56.50;100730.91;5080136;28;20059;-79
2022/04/27 09:10:49;;;;;;;5.13;3.15;;;;;;;19.14;55.01;100724.94;5093491;28;20041;-80
2022/04/27 09:13:15;;;;;;;5.45;2.75;;;;;;;19.88;54.59;100731.50;5071856;28;20549;-78
2022/04/27 09:15:41;;;;;;;7.10;2.80;;;;;;;19.92;53.98;100751.75;5054783;28;20036;-78
2022/04/27 09:21:04;;;;;;;4.53;2.50;;;;;;;20.24;53.28;100736.47;5087921;28;20058;-77
2022/04/27 09:23:42;;;;;;;8.88;2.97;;;;;;;20.53;52.80;100724.75;5080847;28;20543;-77
2022/04/27 09:26:19;;;;;;;5.75;2.85;;;;;;;20.33;52.69;100708.63;5065550;28;20052;-75
2022/04/27 09:28:55;;;;;;;4.88;2.78;;;;;;;20.56;52.74;100722.03;5071729;28;20467;-76
2022/04/27 09:31:32;;;;;;;4.82;2.70;;;;;;;21.29;52.73;100707.69;5082812;28;20040;-76
2022/04/27 09:34:00;;;;;;;10.98;3.22;;;;;;;21.38;49.23;100709.13;5085286;28;20059;-76
2022/04/27 09:36:26;;;;;;;6.18;2.75;;;;;;;22.18;47.26;100734.38;5075623;28;20056;-76
2022/04/27 09:38:53;;;;;;;7.55;2.75;;;;;;;22.26;46.40;100738.44;5049544;28;20147;-79
2022/04/27 09:41:39;;;;;;;6.47;2.75;;;;;;;22.03;44.59;100725.19;5076230;28;20040;-77
2022/04/27 09:44:05;;;;;;;5.05;2.45;;;;;;;22.26;47.23;100729.56;5062305;28;20123;-80
2022/04/27 09:46:31;;;;;;;6.57;2.28;;;;;;;22.60;44.57;100714.72;5086316;28;20050;-78
2022/04/27 09:49:11;;;;;;;7.43;3.15;;;;;;;22.83;46.81;100693.13;5080198;28;20052;-83
2022/04/27 09:51:48;;;;;;;6.75;2.88;;;;;;;23.29;45.14;100733.81;5068487;28;20044;-81
2022/04/27 09:54:23;;;;;;;9.43;3.08;;;;;;;22.45;45.34;100713.59;5082377;28;20442;-82
2022/04/27 09:57:00;;;;;;;6.30;2.45;;;;;;;22.08;45.67;100700.00;5044552;28;20098;-79
2022/04/27 09:59:31;;;;;;;5.53;3.13;;;;;;;22.93;44.60;100690.88;5086624;28;20264;-78
2022/04/27 10:02:08;;;;;;;6.47;3.13;;;;;;;22.70;47.05;100710.69;5071165;28;20040;-79
2022/04/27 10:04:35;;;;;;;5.72;2.90;;;;;;;21.47;47.72;100670.53;5082754;28;20197;-77
2022/04/27 10:07:02;;;;;;;14.15;5.03;;;;;;;22.89;46.82;100691.97;5075799;28;20054;-75
2022/04/27 10:09:29;;;;;;;10.40;6.10;;;;;;;23.73;45.68;100722.72;5080688;28;20683;-81
2022/04/27 10:11:56;;;;;;;14.48;5.90;;;;;;;23.48;44.90;100700.78;5077381;28;20090;-78
2022/04/27 10:14:22;;;;;;;12.93;5.35;;;;;;;23.26;45.97;100690.25;5077457;28;20059;-78
2022/04/27 10:16:49;;;;;;;16.77;6.88;;;;;;;23.31;44.26;100705.16;5063041;28;20038;-79
2022/04/27 10:19:21;;;;;;;12.43;6.70;;;;;;;23.23;44.48;100672.53;5064214;28;20035;-79
2022/04/27 10:21:56;;;;;;;22.05;9.57;;;;;;;23.41;44.54;100702.88;5063637;28;20130;-77
2022/04/27 10:24:34;;;;;;;14.13;6.78;;;;;;;22.05;47.50;100686.75;5078492;28;20044;-79
2022/04/27 10:27:41;;;;;;;20.02;9.02;;;;;;;22.01;47.18;100654.88;5073924;28;20036;-79
2022/04/27 10:30:08;;;;;;;17.40;8.82;;;;;;;22.88;45.37;100660.81;5059714;28;20120;-79
2022/04/27 10:32:54;;;;;;;45.13;15.68;;;;;;;24.01;44.84;100660.56;5075967;28;20052;-77
2022/04/27 10:35:30;;;;;;;42.33;15.05;;;;;;;24.34;42.04;100691.06;5065200;28;20060;-80
2022/04/27 10:37:59;;;;;;;49.33;17.52;;;;;;;24.32;42.96;100658.97;5056587;28;20036;-78
2022/04/27 10:40:37;;;;;;;47.28;18.80;;;;;;;23.77;43.63;100699.38;5081985;28;20032;-79
2022/04/27 10:43:13;;;;;;;54.55;18.58;;;;;;;24.22;41.21;100700.63;5063076;28;20056;-77
2022/04/27 10:45:41;;;;;;;61.28;20.58;;;;;;;23.66;42.42;100678.44;5080600;28;20608;-78
2022/04/27 10:48:15;;;;;;;40.90;15.00;;;;;;;21.42;50.49;100680.53;5068374;28;20044;-80
2022/04/27 10:51:01;;;;;;;30.70;12.40;;;;;;;22.39;48.05;100679.97;5073928;28;20444;-80
2022/04/27 10:53:29;;;;;;;29.83;10.05;;;;;;;22.36;45.33;100661.41;5080138;28;20065;-79
2022/04/27 10:55:59;;;;;;;37.53;13.68;;;;;;;23.39;46.37;100656.59;5079337;28;20039;-80
2022/04/27 10:58:32;;;;;;;30.58;11.73;;;;;;;22.36;47.67;100634.66;5063306;28;20166;-79
2022/04/27 11:00:58;;;;;;;43.45;14.00;;;;;;;23.10;46.00;100648.16;5059340;28;20044;-79
2022/04/27 11:03:27;;;;;;;39.47;13.82;;;;;;;23.28;45.19;100661.59;5072592;28;20092;-76
2022/04/27 11:05:57;;;;;;;43.58;14.38;;;;;;;22.81;46.36;100660.22;5060076;28;20093;-77
2022/04/27 11:08:43;;;;;;;48.35;15.43;;;;;;;24.03;41.86;100644.44;5056012;28;20056;-77
2022/04/27 11:11:09;;;;;;;34.88;11.70;;;;;;;24.08;41.08;100644.19;5077724;28;20076;-77
2022/04/27 11:13:36;;;;;;;24.38;7.65;;;;;;;23.45;43.06;100636.66;5081639;28;21406;-77
2022/04/27 11:16:13;;;;;;;39.85;12.88;;;;;;;23.33;42.68;100628.28;5075391;28;20503;-76
2022/04/27 11:18:49;;;;;;;31.30;10.52;;;;;;;22.83;43.45;100628.91;5062089;28;20051;-75
2022/04/27 11:21:17;;;;;;;36.72;13.02;;;;;;;23.55;42.54;100622.72;5062400;28;20491;-75
2022/04/27 11:23:44;;;;;;;20.52;7.57;;;;;;;23.66;46.14;100626.66;5076264;28;20044;-76
2022/04/27 11:26:10;;;;;;;46.88;15.35;;;;;;;23.02;42.83;100615.53;5061615;28;20072;-76
2022/04/27 11:28:40;;;;;;;37.88;13.15;;;;;;;23.10;45.81;100637.44;5061276;28;20036;-78
2022/04/27 11:31:06;;;;;;;31.50;10.38;;;;;;;22.70;46.11;100601.00;5066232;28;20044;-77
2022/04/27 11:33:36;;;;;;;30.50;10.13;;;;;;;23.75;43.73;100607.47;5065296;28;20048;-76
2022/04/27 11:36:02;;;;;;;19.10;8.77;;;;;;;23.46;42.38;100592.84;5058818;28;20068;-77
2022/04/27 11:38:37;;;;;;;36.20;12.93;;;;;;;21.44;47.91;100626.13;5065232;28;20152;-78